Track Шведов Ярослав

Time Latitude Longitude Accuracy (66% radius in meters) Altitude (meters) Speed (km/hour) Bearing (degrees) Battery (%) GPS flag
06:34:02 57.203633 60.118748 0 0 0 0 1 delete
06:34:01 57.203635 60.118748 0 0 0 0 1 delete
06:34:00 57.203637 60.118747 0 0 0 0 1 delete
06:33:59 57.203642 60.118742 0 0 0 0 1 delete
06:33:58 57.203647 60.118733 0 0 0 0 1 delete
06:33:57 57.203655 60.118723 0 0 0 0 1 delete
06:33:56 57.203658 60.118713 0 0 0 0 1 delete
06:33:55 57.203665 60.118705 0 0 0 0 1 delete
06:33:54 57.203678 60.118680 0 0 0 0 1 delete
06:33:53 57.203697 60.118638 0 0 0 0 1 delete
06:33:52 57.203717 60.118590 0 0 0 0 1 delete
06:33:51 57.203732 60.118537 0 0 0 0 1 delete
06:33:50 57.203750 60.118492 0 0 0 0 1 delete
06:33:49 57.203767 60.118448 0 0 0 0 1 delete
06:33:48 57.203778 60.118400 0 0 0 0 1 delete
06:33:47 57.203793 60.118348 0 0 0 0 1 delete
06:33:46 57.203805 60.118295 0 0 0 0 1 delete
06:33:45 57.203820 60.118245 0 0 0 0 1 delete
06:33:44 57.203830 60.118197 0 0 0 0 1 delete
06:33:43 57.203840 60.118137 0 0 0 0 1 delete
06:33:42 57.203847 60.118075 0 0 0 0 1 delete
06:33:41 57.203852 60.117997 0 0 0 0 1 delete
06:33:40 57.203850 60.117918 0 0 0 0 1 delete
06:33:39 57.203840 60.117837 0 0 0 0 1 delete
06:33:38 57.203823 60.117762 0 0 0 0 1 delete
06:33:37 57.203805 60.117693 0 0 0 0 1 delete
06:33:36 57.203788 60.117627 0 0 0 0 1 delete
06:33:35 57.203777 60.117567 0 0 0 0 1 delete
06:33:34 57.203765 60.117502 0 0 0 0 1 delete
06:33:33 57.203753 60.117437 0 0 0 0 1 delete
06:33:32 57.203743 60.117382 0 0 0 0 1 delete
06:33:31 57.203733 60.117332 0 0 0 0 1 delete
06:33:30 57.203720 60.117285 0 0 0 0 1 delete
06:33:29 57.203703 60.117238 0 0 0 0 1 delete
06:33:28 57.203693 60.117190 0 0 0 0 1 delete
06:33:27 57.203688 60.117147 0 0 0 0 1 delete
06:33:26 57.203683 60.117108 0 0 0 0 1 delete
06:33:25 57.203675 60.117063 0 0 0 0 1 delete
06:33:24 57.203672 60.117017 0 0 0 0 1 delete
06:33:23 57.203672 60.116970 0 0 0 0 1 delete
06:33:22 57.203672 60.116932 0 0 0 0 1 delete
06:33:21 57.203670 60.116895 0 0 0 0 1 delete
06:33:20 57.203670 60.116852 0 0 0 0 1 delete
06:33:19 57.203668 60.116812 0 0 0 0 1 delete
06:33:18 57.203663 60.116768 0 0 0 0 1 delete
06:33:17 57.203667 60.116720 0 0 0 0 1 delete
06:33:16 57.203670 60.116673 0 0 0 0 1 delete
06:33:15 57.203670 60.116628 0 0 0 0 1 delete
06:33:14 57.203673 60.116578 0 0 0 0 1 delete
06:33:13 57.203668 60.116537 0 0 0 0 1 delete